sensor_id;sensor_type;location;lat;lon;timestamp;pressure;altitude;pressure_sealevel;temperature;humidity
60371;BME280;48550;40.588;49.684;2022-09-01T00:02:23;101052.53;;;24.15;45.52
60371;BME280;48550;40.588;49.684;2022-09-01T00:04:52;101056.22;;;24.10;44.67
60371;BME280;48550;40.588;49.684;2022-09-01T00:07:21;101055.78;;;24.17;42.96
60371;BME280;48550;40.588;49.684;2022-09-01T00:09:47;101061.38;;;24.34;40.37
60371;BME280;48550;40.588;49.684;2022-09-01T00:12:13;101059.50;;;24.52;38.67
60371;BME280;48550;40.588;49.684;2022-09-01T00:14:40;101071.47;;;24.56;39.06
60371;BME280;48550;40.588;49.684;2022-09-01T00:17:08;101062.13;;;24.57;42.38
60371;BME280;48550;40.588;49.684;2022-09-01T00:19:34;101073.63;;;24.67;40.23
60371;BME280;48550;40.588;49.684;2022-09-01T00:22:01;101062.31;;;24.69;39.28
60371;BME280;48550;40.588;49.684;2022-09-01T00:24:27;101071.22;;;24.75;38.21
60371;BME280;48550;40.588;49.684;2022-09-01T00:26:54;101065.88;;;24.78;39.93
60371;BME280;48550;40.588;49.684;2022-09-01T00:29:21;101062.97;;;24.75;39.27
60371;BME280;48550;40.588;49.684;2022-09-01T00:31:48;101066.22;;;24.77;39.59
60371;BME280;48550;40.588;49.684;2022-09-01T00:34:15;101053.28;;;24.68;42.55
60371;BME280;48550;40.588;49.684;2022-09-01T00:36:41;101055.84;;;24.65;41.15
60371;BME280;48550;40.588;49.684;2022-09-01T00:39:08;101054.91;;;24.87;40.02
60371;BME280;48550;40.588;49.684;2022-09-01T00:41:36;101050.91;;;24.93;40.61
60371;BME280;48550;40.588;49.684;2022-09-01T00:44:08;101042.69;;;25.01;40.09
60371;BME280;48550;40.588;49.684;2022-09-01T00:46:42;101046.41;;;25.06;39.34
60371;BME280;48550;40.588;49.684;2022-09-01T00:49:47;101032.63;;;24.88;39.90
60371;BME280;48550;40.588;49.684;2022-09-01T00:52:30;101038.44;;;24.87;41.30
60371;BME280;48550;40.588;49.684;2022-09-01T00:54:59;101038.13;;;24.80;41.04
60371;BME280;48550;40.588;49.684;2022-09-01T00:57:26;101038.97;;;24.97;40.93
60371;BME280;48550;40.588;49.684;2022-09-01T00:59:56;101045.44;;;25.01;41.31
60371;BME280;48550;40.588;49.684;2022-09-01T01:02:22;101038.00;;;25.02;41.91
60371;BME280;48550;40.588;49.684;2022-09-01T01:04:48;101040.44;;;25.03;41.82
60371;BME280;48550;40.588;49.684;2022-09-01T01:07:15;101043.47;;;24.93;42.68
60371;BME280;48550;40.588;49.684;2022-09-01T01:09:43;101051.19;;;24.74;44.90
60371;BME280;48550;40.588;49.684;2022-09-01T01:12:10;101043.41;;;24.59;45.73
60371;BME280;48550;40.588;49.684;2022-09-01T01:14:38;101045.47;;;24.53;45.97
60371;BME280;48550;40.588;49.684;2022-09-01T01:17:06;101041.38;;;24.42;45.61
60371;BME280;48550;40.588;49.684;2022-09-01T01:19:41;101044.44;;;24.40;46.10
60371;BME280;48550;40.588;49.684;2022-09-01T01:22:50;101039.22;;;24.70;43.50
60371;BME280;48550;40.588;49.684;2022-09-01T01:28:40;101043.31;;;24.42;43.10
60371;BME280;48550;40.588;49.684;2022-09-01T01:31:14;101041.63;;;24.23;43.64
60371;BME280;48550;40.588;49.684;2022-09-01T01:33:48;101038.69;;;24.20;43.47
60371;BME280;48550;40.588;49.684;2022-09-01T01:36:22;101053.41;;;24.55;41.53
60371;BME280;48550;40.588;49.684;2022-09-01T01:38:56;101059.88;;;24.59;40.67
60371;BME280;48550;40.588;49.684;2022-09-01T01:41:28;101077.59;;;24.53;39.12
60371;BME280;48550;40.588;49.684;2022-09-01T01:43:59;101077.41;;;24.49;38.01
60371;BME280;48550;40.588;49.684;2022-09-01T01:46:26;101071.47;;;24.56;38.78
60371;BME280;48550;40.588;49.684;2022-09-01T01:48:52;101065.34;;;24.59;38.02
60371;BME280;48550;40.588;49.684;2022-09-01T01:51:20;101071.69;;;24.68;38.40
60371;BME280;48550;40.588;49.684;2022-09-01T01:53:49;101065.84;;;24.61;39.47
60371;BME280;48550;40.588;49.684;2022-09-01T01:56:18;101063.56;;;24.54;38.90
60371;BME280;48550;40.588;49.684;2022-09-01T01:58:44;101073.91;;;24.57;39.16
60371;BME280;48550;40.588;49.684;2022-09-01T02:01:10;101081.16;;;24.53;41.58
60371;BME280;48550;40.588;49.684;2022-09-01T02:03:37;101075.84;;;24.57;46.75
60371;BME280;48550;40.588;49.684;2022-09-01T02:06:06;101077.59;;;24.53;51.85
60371;BME280;48550;40.588;49.684;2022-09-01T02:08:35;101082.66;;;24.68;53.20
60371;BME280;48550;40.588;49.684;2022-09-01T02:11:03;101075.03;;;24.56;56.72
60371;BME280;48550;40.588;49.684;2022-09-01T02:13:30;101080.09;;;24.71;55.77
60371;BME280;48550;40.588;49.684;2022-09-01T02:16:00;101078.28;;;24.67;57.33
60371;BME280;48550;40.588;49.684;2022-09-01T02:18:32;101079.09;;;24.67;60.19
60371;BME280;48550;40.588;49.684;2022-09-01T02:21:05;101080.09;;;24.71;60.20
60371;BME280;48550;40.588;49.684;2022-09-01T02:23:34;101077.34;;;24.80;61.50
60371;BME280;48550;40.588;49.684;2022-09-01T02:26:00;101074.16;;;24.95;61.57
60371;BME280;48550;40.588;49.684;2022-09-01T02:28:29;101066.63;;;25.18;59.84
60371;BME280;48550;40.588;49.684;2022-09-01T02:30:57;101068.56;;;25.61;57.45
60371;BME280;48550;40.588;49.684;2022-09-01T02:33:25;101074.53;;;25.89;55.88
60371;BME280;48550;40.588;49.684;2022-09-01T02:36:02;101069.81;;;25.98;56.12
60371;BME280;48550;40.588;49.684;2022-09-01T02:38:29;101080.53;;;25.82;59.78
60371;BME280;48550;40.588;49.684;2022-09-01T02:40:59;101087.47;;;25.88;60.52
60371;BME280;48550;40.588;49.684;2022-09-01T02:43:27;101087.81;;;25.78;61.23
60371;BME280;48550;40.588;49.684;2022-09-01T02:45:55;101089.59;;;25.74;64.05
60371;BME280;48550;40.588;49.684;2022-09-01T02:48:29;101091.34;;;25.96;63.69
60371;BME280;48550;40.588;49.684;2022-09-01T02:50:58;101091.25;;;26.31;62.76
60371;BME280;48550;40.588;49.684;2022-09-01T02:53:29;101090.97;;;26.23;62.34
60371;BME280;48550;40.588;49.684;2022-09-01T02:55:56;101093.97;;;25.84;70.10
60371;BME280;48550;40.588;49.684;2022-09-01T02:58:25;101096.72;;;25.75;72.03
60371;BME280;48550;40.588;49.684;2022-09-01T03:00:53;101094.13;;;25.70;74.83
60371;BME280;48550;40.588;49.684;2022-09-01T03:03:20;101095.88;;;26.09;70.89
60371;BME280;48550;40.588;49.684;2022-09-01T03:05:47;101093.84;;;26.74;69.07
60371;BME280;48550;40.588;49.684;2022-09-01T03:08:17;101093.50;;;26.46;68.16
60371;BME280;48550;40.588;49.684;2022-09-01T03:10:44;101098.59;;;26.18;70.33
60371;BME280;48550;40.588;49.684;2022-09-01T03:13:17;101093.63;;;26.03;74.95
60371;BME280;48550;40.588;49.684;2022-09-01T03:15:45;101083.44;;;25.77;77.61
60371;BME280;48550;40.588;49.684;2022-09-01T03:18:12;101095.41;;;25.64;80.53
60371;BME280;48550;40.588;49.684;2022-09-01T03:20:40;101092.19;;;25.71;82.33
60371;BME280;48550;40.588;49.684;2022-09-01T03:23:10;101092.50;;;25.78;83.15
60371;BME280;48550;40.588;49.684;2022-09-01T03:25:40;101093.97;;;25.84;86.76
60371;BME280;48550;40.588;49.684;2022-09-01T03:28:07;101093.47;;;25.90;88.16
60371;BME280;48550;40.588;49.684;2022-09-01T03:30:35;101100.56;;;26.00;88.47
60371;BME280;48550;40.588;49.684;2022-09-01T03:33:03;101090.84;;;26.11;89.12
60371;BME280;48550;40.588;49.684;2022-09-01T03:35:29;101088.72;;;26.17;91.09
60371;BME280;48550;40.588;49.684;2022-09-01T03:37:57;101093.25;;;26.21;91.41
60371;BME280;48550;40.588;49.684;2022-09-01T03:40:25;101091.06;;;26.44;92.63
60371;BME280;48550;40.588;49.684;2022-09-01T03:43:02;101094.81;;;26.40;94.97
60371;BME280;48550;40.588;49.684;2022-09-01T03:45:29;101095.59;;;26.49;94.14
60371;BME280;48550;40.588;49.684;2022-09-01T03:47:55;101096.88;;;26.51;97.72
60371;BME280;48550;40.588;49.684;2022-09-01T03:50:23;101094.06;;;26.60;97.60
60371;BME280;48550;40.588;49.684;2022-09-01T03:52:52;101095.97;;;26.68;99.01
60371;BME280;48550;40.588;49.684;2022-09-01T03:55:21;101097.41;;;26.74;99.20
60371;BME280;48550;40.588;49.684;2022-09-01T03:57:49;101094.91;;;26.90;99.92
60371;BME280;48550;40.588;49.684;2022-09-01T04:00:16;101103.28;;;27.02;94.26
60371;BME280;48550;40.588;49.684;2022-09-01T04:02:52;101090.88;;;27.17;88.70
60371;BME280;48550;40.588;49.684;2022-09-01T04:05:22;101093.81;;;27.12;90.86
60371;BME280;48550;40.588;49.684;2022-09-01T04:07:55;101092.22;;;27.11;88.21
60371;BME280;48550;40.588;49.684;2022-09-01T04:10:21;101100.28;;;27.16;87.59
60371;BME280;48550;40.588;49.684;2022-09-01T04:12:47;101090.72;;;27.13;87.11
60371;BME280;48550;40.588;49.684;2022-09-01T04:15:15;101096.56;;;27.33;85.06
60371;BME280;48550;40.588;49.684;2022-09-01T04:17:44;101096.63;;;27.45;83.09
60371;BME280;48550;40.588;49.684;2022-09-01T04:20:29;101095.84;;;27.44;82.16
60371;BME280;48550;40.588;49.684;2022-09-01T04:23:05;101097.56;;;27.49;80.06
60371;BME280;48550;40.588;49.684;2022-09-01T04:25:36;101097.41;;;27.75;79.31
60371;BME280;48550;40.588;49.684;2022-09-01T04:28:04;101104.09;;;27.86;78.09
60371;BME280;48550;40.588;49.684;2022-09-01T04:30:42;101102.81;;;27.83;78.89
60371;BME280;48550;40.588;49.684;2022-09-01T04:33:08;101105.03;;;27.90;78.56
60371;BME280;48550;40.588;49.684;2022-09-01T04:35:38;101100.44;;;27.94;78.96
60371;BME280;48550;40.588;49.684;2022-09-01T04:38:05;101105.31;;;28.09;81.19
60371;BME280;48550;40.588;49.684;2022-09-01T04:40:41;101100.94;;;28.08;82.84
60371;BME280;48550;40.588;49.684;2022-09-01T04:43:07;101105.50;;;28.25;82.43
60371;BME280;48550;40.588;49.684;2022-09-01T04:45:35;101110.25;;;28.37;81.50
60371;BME280;48550;40.588;49.684;2022-09-01T04:48:02;101111.41;;;28.48;81.86
60371;BME280;48550;40.588;49.684;2022-09-01T04:50:28;101109.78;;;28.47;82.82
60371;BME280;48550;40.588;49.684;2022-09-01T04:52:58;101103.59;;;28.62;83.81
60371;BME280;48550;40.588;49.684;2022-09-01T04:55:26;101108.88;;;28.92;82.75
60371;BME280;48550;40.588;49.684;2022-09-01T04:57:55;101110.28;;;29.10;83.78
60371;BME280;48550;40.588;49.684;2022-09-01T05:00:23;101111.97;;;29.95;76.91
60371;BME280;48550;40.588;49.684;2022-09-01T05:02:51;101108.59;;;31.85;64.38
60371;BME280;48550;40.588;49.684;2022-09-01T05:05:21;101122.38;;;31.63;63.34
60371;BME280;48550;40.588;49.684;2022-09-01T05:07:48;101122.16;;;31.52;65.03
60371;BME280;48550;40.588;49.684;2022-09-01T05:10:21;101124.94;;;32.55;59.50
60371;BME280;48550;40.588;49.684;2022-09-01T05:12:48;101145.25;;;31.75;65.05
60371;BME280;48550;40.588;49.684;2022-09-01T05:15:14;101135.25;;;31.90;62.29
60371;BME280;48550;40.588;49.684;2022-09-01T05:17:42;101132.97;;;32.15;61.64
60371;BME280;48550;40.588;49.684;2022-09-01T05:20:09;101136.72;;;32.95;56.53
60371;BME280;48550;40.588;49.684;2022-09-01T05:22:36;101136.56;;;32.38;58.11
60371;BME280;48550;40.588;49.684;2022-09-01T05:25:07;101145.56;;;33.00;56.25
60371;BME280;48550;40.588;49.684;2022-09-01T05:27:42;101142.88;;;33.07;56.75
60371;BME280;48550;40.588;49.684;2022-09-01T05:30:14;101140.22;;;32.88;56.38
60371;BME280;48550;40.588;49.684;2022-09-01T05:32:42;101137.50;;;33.48;53.31
60371;BME280;48550;40.588;49.684;2022-09-01T05:35:09;101138.38;;;34.23;49.47
60371;BME280;48550;40.588;49.684;2022-09-01T05:37:35;101140.81;;;34.72;46.89
60371;BME280;48550;40.588;49.684;2022-09-01T05:40:08;101151.97;;;33.91;48.67
60371;BME280;48550;40.588;49.684;2022-09-01T05:42:43;101147.00;;;34.95;44.35
60371;BME280;48550;40.588;49.684;2022-09-01T05:45:10;101148.50;;;34.38;45.96
60371;BME280;48550;40.588;49.684;2022-09-01T05:47:39;101148.38;;;34.27;45.12
60371;BME280;48550;40.588;49.684;2022-09-01T05:50:06;101145.31;;;34.02;48.37
60371;BME280;48550;40.588;49.684;2022-09-01T05:52:36;101137.78;;;33.69;47.19
60371;BME280;48550;40.588;49.684;2022-09-01T05:55:03;101146.53;;;34.05;44.90
60371;BME280;48550;40.588;49.684;2022-09-01T05:57:34;101136.56;;;35.47;41.12
60371;BME280;48550;40.588;49.684;2022-09-01T06:00:03;101142.41;;;34.73;43.96
60371;BME280;48550;40.588;49.684;2022-09-01T06:02:35;101140.03;;;36.70;38.27
60371;BME280;48550;40.588;49.684;2022-09-01T06:05:02;101142.88;;;35.37;42.98
60371;BME280;48550;40.588;49.684;2022-09-01T06:07:28;101137.59;;;36.19;39.70
60371;BME280;48550;40.588;49.684;2022-09-01T06:09:54;101131.25;;;36.54;38.51
60371;BME280;48550;40.588;49.684;2022-09-01T06:12:19;101129.03;;;35.65;41.28
60371;BME280;48550;40.588;49.684;2022-09-01T06:14:50;101141.38;;;34.40;45.99
60371;BME280;48550;40.588;49.684;2022-09-01T06:17:18;101138.97;;;34.39;43.84
60371;BME280;48550;40.588;49.684;2022-09-01T06:19:50;101139.59;;;34.25;42.66
60371;BME280;48550;40.588;49.684;2022-09-01T06:22:18;101122.88;;;35.28;39.57
60371;BME280;48550;40.588;49.684;2022-09-01T06:24:45;101127.00;;;34.38;39.54
60371;BME280;48550;40.588;49.684;2022-09-01T06:27:13;101120.34;;;34.13;39.45
60371;BME280;48550;40.588;49.684;2022-09-01T06:29:42;101117.97;;;34.11;40.63
60371;BME280;48550;40.588;49.684;2022-09-01T06:32:09;101124.50;;;34.74;38.05
60371;BME280;48550;40.588;49.684;2022-09-01T06:34:41;101119.91;;;34.96;36.35
60371;BME280;48550;40.588;49.684;2022-09-01T06:37:08;101124.91;;;34.76;36.15
60371;BME280;48550;40.588;49.684;2022-09-01T06:39:34;101113.88;;;34.39;36.97
60371;BME280;48550;40.588;49.684;2022-09-01T06:42:00;101110.28;;;34.38;34.87
60371;BME280;48550;40.588;49.684;2022-09-01T06:44:27;101121.28;;;34.72;35.07
60371;BME280;48550;40.588;49.684;2022-09-01T06:46:55;101127.09;;;34.49;35.37
60371;BME280;48550;40.588;49.684;2022-09-01T06:49:21;101103.69;;;34.61;34.69
60371;BME280;48550;40.588;49.684;2022-09-01T06:52:00;101100.69;;;35.60;32.96
60371;BME280;48550;40.588;49.684;2022-09-01T06:54:28;101094.97;;;35.24;35.00
60371;BME280;48550;40.588;49.684;2022-09-01T06:56:55;101095.88;;;34.81;34.64
60371;BME280;48550;40.588;49.684;2022-09-01T06:59:21;101091.66;;;35.98;32.43
60371;BME280;48550;40.588;49.684;2022-09-01T07:01:48;101091.25;;;35.93;33.31
60371;BME280;48550;40.588;49.684;2022-09-01T07:04:15;101085.69;;;35.02;33.81
60371;BME280;48550;40.588;49.684;2022-09-01T07:06:45;101086.66;;;35.35;33.18
60371;BME280;48550;40.588;49.684;2022-09-01T07:09:17;101067.50;;;35.33;32.87
60371;BME280;48550;40.588;49.684;2022-09-01T07:11:43;101068.28;;;35.30;33.80
60371;BME280;48550;40.588;49.684;2022-09-01T07:14:09;101061.88;;;35.30;33.39
60371;BME280;48550;40.588;49.684;2022-09-01T07:16:36;101067.38;;;35.09;32.65
60371;BME280;48550;40.588;49.684;2022-09-01T07:19:07;101068.38;;;35.55;31.55
60371;BME280;48550;40.588;49.684;2022-09-01T07:21:41;101068.09;;;35.82;31.00
60371;BME280;48550;40.588;49.684;2022-09-01T07:24:09;101062.53;;;36.24;30.63
60371;BME280;48550;40.588;49.684;2022-09-01T07:26:36;101058.00;;;35.49;31.21
60371;BME280;48550;40.588;49.684;2022-09-01T07:29:04;101059.97;;;35.41;30.57
60371;BME280;48550;40.588;49.684;2022-09-01T07:31:40;101053.63;;;34.79;31.31
60371;BME280;48550;40.588;49.684;2022-09-01T07:34:11;101044.75;;;34.62;31.97
60371;BME280;48550;40.588;49.684;2022-09-01T07:36:40;101044.38;;;33.75;33.40
60371;BME280;48550;40.588;49.684;2022-09-01T07:39:08;101044.78;;;33.77;33.45
60371;BME280;48550;40.588;49.684;2022-09-01T07:41:34;101040.50;;;33.46;32.29
60371;BME280;48550;40.588;49.684;2022-09-01T07:44:01;101027.31;;;33.43;32.30
60371;BME280;48550;40.588;49.684;2022-09-01T07:46:29;101023.53;;;33.29;33.25
60371;BME280;48550;40.588;49.684;2022-09-01T07:48:59;101035.44;;;33.26;34.07
60371;BME280;48550;40.588;49.684;2022-09-01T07:51:26;101036.00;;;33.38;33.89
60371;BME280;48550;40.588;49.684;2022-09-01T07:53:53;101028.03;;;33.37;35.29
60371;BME280;48550;40.588;49.684;2022-09-01T07:56:21;101023.06;;;33.53;34.90
60371;BME280;48550;40.588;49.684;2022-09-01T07:58:48;101017.84;;;33.48;35.02
60371;BME280;48550;40.588;49.684;2022-09-01T08:01:18;101016.38;;;33.58;34.57
60371;BME280;48550;40.588;49.684;2022-09-01T08:03:47;101020.50;;;33.74;34.40
60371;BME280;48550;40.588;49.684;2022-09-01T08:06:15;101009.88;;;33.46;34.28
60371;BME280;48550;40.588;49.684;2022-09-01T08:08:49;101004.59;;;33.38;35.10
60371;BME280;48550;40.588;49.684;2022-09-01T08:11:21;101005.31;;;33.65;34.25
60371;BME280;48550;40.588;49.684;2022-09-01T08:13:50;101003.13;;;33.85;35.11
60371;BME280;48550;40.588;49.684;2022-09-01T08:16:16;101008.47;;;33.63;35.57
60371;BME280;48550;40.588;49.684;2022-09-01T08:18:43;101004.47;;;34.01;34.52
60371;BME280;48550;40.588;49.684;2022-09-01T08:21:11;101001.56;;;33.87;33.20
60371;BME280;48550;40.588;49.684;2022-09-01T08:23:37;100996.97;;;33.68;32.34
60371;BME280;48550;40.588;49.684;2022-09-01T08:26:05;100992.09;;;33.95;32.47
60371;BME280;48550;40.588;49.684;2022-09-01T08:28:31;101006.09;;;34.06;33.69
60371;BME280;48550;40.588;49.684;2022-09-01T08:30:58;101001.75;;;34.12;33.30
60371;BME280;48550;40.588;49.684;2022-09-01T08:33:25;100999.84;;;34.20;32.77
60371;BME280;48550;40.588;49.684;2022-09-01T08:35:51;100994.50;;;34.00;32.93
60371;BME280;48550;40.588;49.684;2022-09-01T08:38:18;100990.22;;;34.10;32.70
60371;BME280;48550;40.588;49.684;2022-09-01T08:40:58;101000.66;;;34.20;33.37
60371;BME280;48550;40.588;49.684;2022-09-01T08:45:53;100996.41;;;34.33;32.58
60371;BME280;48550;40.588;49.684;2022-09-01T08:48:27;100991.16;;;34.28;30.72
60371;BME280;48550;40.588;49.684;2022-09-01T08:51:09;100990.31;;;34.21;30.97
60371;BME280;48550;40.588;49.684;2022-09-01T08:53:45;100988.75;;;34.23;29.71
60371;BME280;48550;40.588;49.684;2022-09-01T08:56:14;100986.91;;;34.41;28.11
60371;BME280;48550;40.588;49.684;2022-09-01T08:58:42;100970.19;;;34.45;27.31
60371;BME280;48550;40.588;49.684;2022-09-01T09:01:19;100980.91;;;34.36;25.10
60371;BME280;48550;40.588;49.684;2022-09-01T09:07:30;100964.22;;;34.43;26.41
60371;BME280;48550;40.588;49.684;2022-09-01T09:10:22;100980.09;;;34.35;27.15
60371;BME280;48550;40.588;49.684;2022-09-01T09:17:58;100981.63;;;34.29;28.53
60371;BME280;48550;40.588;49.684;2022-09-01T09:20:27;100972.16;;;34.37;26.20
60371;BME280;48550;40.588;49.684;2022-09-01T09:22:53;100971.00;;;34.46;27.72
60371;BME280;48550;40.588;49.684;2022-09-01T09:25:19;100982.75;;;34.21;28.33
60371;BME280;48550;40.588;49.684;2022-09-01T09:27:49;100971.38;;;34.40;30.13
60371;BME280;48550;40.588;49.684;2022-09-01T09:33:03;100956.69;;;34.51;29.13
60371;BME280;48550;40.588;49.684;2022-09-01T09:35:32;100967.44;;;34.49;30.75
60371;BME280;48550;40.588;49.684;2022-09-01T09:41:14;100956.72;;;34.58;30.54
60371;BME280;48550;40.588;49.684;2022-09-01T09:46:37;100955.56;;;34.66;29.85
60371;BME280;48550;40.588;49.684;2022-09-01T09:51:42;100955.03;;;34.39;27.79
60371;BME280;48550;40.588;49.684;2022-09-01T09:54:24;100947.56;;;34.54;27.63
60371;BME280;48550;40.588;49.684;2022-09-01T10:02:25;100939.97;;;34.51;27.22
60371;BME280;48550;40.588;49.684;2022-09-01T10:04:53;100955.53;;;34.59;27.29
60371;BME280;48550;40.588;49.684;2022-09-01T10:09:52;100947.72;;;34.20;27.31
60371;BME280;48550;40.588;49.684;2022-09-01T10:12:22;100949.84;;;34.37;27.36
60371;BME280;48550;40.588;49.684;2022-09-01T10:14:54;100939.59;;;34.56;27.22
60371;BME280;48550;40.588;49.684;2022-09-01T10:17:33;100946.16;;;34.26;26.47
60371;BME280;48550;40.588;49.684;2022-09-01T10:20:04;100944.16;;;34.23;26.51
60371;BME280;48550;40.588;49.684;2022-09-01T10:22:34;100939.47;;;34.34;27.21
60371;BME280;48550;40.588;49.684;2022-09-01T10:25:02;100937.41;;;34.24;27.19
60371;BME280;48550;40.588;49.684;2022-09-01T10:27:35;100936.22;;;34.25;27.29
60371;BME280;48550;40.588;49.684;2022-09-01T10:30:06;100941.09;;;34.39;26.84
60371;BME280;48550;40.588;49.684;2022-09-01T10:35:17;100933.34;;;34.18;26.45
60371;BME280;48550;40.588;49.684;2022-09-01T10:37:45;100940.13;;;34.17;27.24
60371;BME280;48550;40.588;49.684;2022-09-01T10:40:16;100938.91;;;34.15;26.56
60371;BME280;48550;40.588;49.684;2022-09-01T10:42:45;100944.16;;;34.23;27.08
60371;BME280;48550;40.588;49.684;2022-09-01T10:45:32;100948.06;;;34.15;27.06
60371;BME280;48550;40.588;49.684;2022-09-01T10:50:44;100931.84;;;34.24;26.58
60371;BME280;48550;40.588;49.684;2022-09-01T10:56:15;100920.38;;;34.36;27.06
60371;BME280;48550;40.588;49.684;2022-09-01T10:59:06;100919.06;;;34.20;25.91
60371;BME280;48550;40.588;49.684;2022-09-01T11:04:17;100918.56;;;34.07;26.89
60371;BME280;48550;40.588;49.684;2022-09-01T11:14:24;100925.69;;;34.01;25.39
60371;BME280;48550;40.588;49.684;2022-09-01T11:30:43;100925.69;;;34.01;24.01
60371;BME280;48550;40.588;49.684;2022-09-01T11:39:04;100916.53;;;34.00;23.63
60371;BME280;48550;40.588;49.684;2022-09-01T11:44:29;100919.34;;;34.04;21.92
60371;BME280;48550;40.588;49.684;2022-09-01T11:47:06;100930.06;;;34.02;22.09
60371;BME280;48550;40.588;49.684;2022-09-01T11:49:34;100933.25;;;34.00;22.52
60371;BME280;48550;40.588;49.684;2022-09-01T11:52:02;100927.28;;;34.02;22.19
60371;BME280;48550;40.588;49.684;2022-09-01T11:54:38;100921.75;;;34.09;21.41
60371;BME280;48550;40.588;49.684;2022-09-01T11:57:37;100926.44;;;33.94;22.23
60371;BME280;48550;40.588;49.684;2022-09-01T12:00:09;100916.09;;;33.95;21.84
60371;BME280;48550;40.588;49.684;2022-09-01T12:02:43;100913.69;;;33.93;22.10
60371;BME280;48550;40.588;49.684;2022-09-01T12:05:32;100916.03;;;33.88;23.07
60371;BME280;48550;40.588;49.684;2022-09-01T12:08:01;100924.03;;;33.93;22.54
60371;BME280;48550;40.588;49.684;2022-09-01T12:10:38;100922.28;;;33.77;23.01
60371;BME280;48550;40.588;49.684;2022-09-01T12:13:19;100930.25;;;33.75;21.71
60371;BME280;48550;40.588;49.684;2022-09-01T12:15:58;100913.88;;;33.70;21.88
60371;BME280;48550;40.588;49.684;2022-09-01T12:18:27;100926.16;;;33.62;20.75
60371;BME280;48550;40.588;49.684;2022-09-01T12:20:58;100915.81;;;33.63;20.88
60371;BME280;48550;40.588;49.684;2022-09-01T12:23:27;100925.38;;;33.65;21.85
60371;BME280;48550;40.588;49.684;2022-09-01T12:25:56;100916.63;;;33.63;21.71
60371;BME280;48550;40.588;49.684;2022-09-01T12:28:23;100909.44;;;33.62;20.07
60371;BME280;48550;40.588;49.684;2022-09-01T12:30:51;100916.91;;;33.51;21.31
60371;BME280;48550;40.588;49.684;2022-09-01T12:33:20;100914.78;;;33.41;21.29
60371;BME280;48550;40.588;49.684;2022-09-01T12:35:46;100917.31;;;33.53;21.76
60371;BME280;48550;40.588;49.684;2022-09-01T12:40:51;100921.53;;;33.40;21.85
60371;BME280;48550;40.588;49.684;2022-09-01T12:43:36;100911.53;;;33.32;22.07
60371;BME280;48550;40.588;49.684;2022-09-01T12:46:04;100909.03;;;33.23;22.22
60371;BME280;48550;40.588;49.684;2022-09-01T12:48:35;100912.66;;;33.27;21.90
60371;BME280;48550;40.588;49.684;2022-09-01T12:53:32;100907.44;;;33.22;22.22
60371;BME280;48550;40.588;49.684;2022-09-01T12:56:04;100918.56;;;33.22;22.08
60371;BME280;48550;40.588;49.684;2022-09-01T12:58:31;100914.81;;;33.07;21.92
60371;BME280;48550;40.588;49.684;2022-09-01T13:01:04;100908.84;;;33.05;21.92
60371;BME280;48550;40.588;49.684;2022-09-01T13:03:32;100903.22;;;32.98;22.28
60371;BME280;48550;40.588;49.684;2022-09-01T13:06:00;100911.41;;;32.84;22.62
60371;BME280;48550;40.588;49.684;2022-09-01T13:08:32;100913.25;;;32.76;23.21
60371;BME280;48550;40.588;49.684;2022-09-01T13:13:26;100907.94;;;32.94;23.18
60371;BME280;48550;40.588;49.684;2022-09-01T13:15:55;100910.00;;;32.71;23.84
60371;BME280;48550;40.588;49.684;2022-09-01T13:18:23;100924.34;;;32.73;23.63
60371;BME280;48550;40.588;49.684;2022-09-01T13:20:50;100917.06;;;32.65;23.24
60371;BME280;48550;40.588;49.684;2022-09-01T13:23:17;100911.91;;;32.67;23.29
60371;BME280;48550;40.588;49.684;2022-09-01T13:25:44;100921.00;;;32.64;23.58
60371;BME280;48550;40.588;49.684;2022-09-01T13:28:11;100927.69;;;32.59;23.91
60371;BME280;48550;40.588;49.684;2022-09-01T13:30:38;100928.84;;;32.54;24.49
60371;BME280;48550;40.588;49.684;2022-09-01T13:33:04;100924.78;;;32.48;24.61
60371;BME280;48550;40.588;49.684;2022-09-01T13:35:30;100920.22;;;32.33;24.99
60371;BME280;48550;40.588;49.684;2022-09-01T13:37:56;100915.66;;;32.21;26.02
60371;BME280;48550;40.588;49.684;2022-09-01T13:40:22;100919.56;;;32.17;26.29
60371;BME280;48550;40.588;49.684;2022-09-01T13:42:52;100924.91;;;32.03;26.88
60371;BME280;48550;40.588;49.684;2022-09-01T13:45:22;100926.31;;;31.93;27.16
60371;BME280;48550;40.588;49.684;2022-09-01T13:47:50;100917.81;;;31.82;27.90
60371;BME280;48550;40.588;49.684;2022-09-01T13:50:18;100922.44;;;31.75;28.15
60371;BME280;48550;40.588;49.684;2022-09-01T13:52:47;100918.88;;;31.74;28.24
60371;BME280;48550;40.588;49.684;2022-09-01T13:55:16;100916.25;;;31.62;28.78
60371;BME280;48550;40.588;49.684;2022-09-01T13:57:42;100917.25;;;31.50;29.53
60371;BME280;48550;40.588;49.684;2022-09-01T14:00:11;100921.81;;;31.39;30.16
60371;BME280;48550;40.588;49.684;2022-09-01T14:02:43;100925.81;;;31.42;30.07
60371;BME280;48550;40.588;49.684;2022-09-01T14:05:19;100927.34;;;31.39;30.32
60371;BME280;48550;40.588;49.684;2022-09-01T14:07:45;100926.41;;;31.32;30.51
60371;BME280;48550;40.588;49.684;2022-09-01T14:10:11;100926.72;;;31.26;30.94
60371;BME280;48550;40.588;49.684;2022-09-01T14:12:39;100936.69;;;31.12;31.28
60371;BME280;48550;40.588;49.684;2022-09-01T14:15:07;100937.84;;;31.11;31.91
60371;BME280;48550;40.588;49.684;2022-09-01T14:17:34;100928.59;;;31.03;32.26